Dedham, Massachusetts
Current Conditions -  °F | °C
As of 4:53 AM on Thursday 27 Nov 2014 (Local Time) from KOWD Reporting Station
Overcast Overcast  
Wind Chill: 29°   Ceiling: 4800
Heat Index: 34°   Visibility: 10mi
Dew Point: 31°   Wind: 6mph
Humidity: 89%   Direction: 330°NNW
Pressure: 29.81"   Gusts: NA
Location:  42.25°N, 71.17°W
Report Text: KOWD 270953Z AUTO 33005KT 10SM BKN048 OVC055 01/M01 A2981 RMK AO2 SLP095 T00111006 $
Loading
Personal Weather Stations






























Interactive Weather Map New forecast layout! Learn more

10-Day Weather Forecast

Advertisements
Track Severe Weather on mobile